Webcam

2020/12/04 16:20 EBBR 041620Z 19010KT CAVOK 05/00 Q0986 NOSIG

Webcam

--- Refresh now ---